• Join FlightAware (Why Join?)
  • Login
  • US Flag 
06:46AM EDT


 

Airport Tracker/Info


-or-


 

Live Flight TrackerFlight Track Log ✈ SAS6 ✈ 22-Apr-2013 ✈ ESSA / ARN - ESPA / LLA

Flight Track Log - Related Links

Times and Time Zones

All times are in EDT time to prevent confusion due to time zone crossing. See the SAS6 flight status page for this flight to view local times or setup timezone preferences in your user account.

Time Position Orientation Groundspeed Altitude Reporting Facility
EDT Latitude Longitude Course Direction KTS MPH feet Rate Location/Type
03:49AM 60.0089 18.1279 16° North  Level Estimated
03:50AM 60.1278 18.1986 17° North  Level Estimated
03:51AM 60.2467 18.2699 17° North  Level Estimated
03:52AM 60.3656 18.3417 17° North  Level Estimated
03:53AM 60.4844 18.4140 17° North  Level Estimated
03:54AM 60.5904 18.4790 17° North  Level Estimated
03:55AM 60.6964 18.5444 17° North  Level Estimated
03:56AM 60.8024 18.6103 17° North  Level Estimated
03:57AM 60.9083 18.6766 17° North  Level Estimated
03:58AM 61.0142 18.7434 17° North  Level Estimated
03:59AM 61.1201 18.8106 17° North  Level Estimated
04:00AM 61.2260 18.8782 17° North  Level Estimated
04:01AM 61.3318 18.9464 17° North  Level Estimated
04:02AM 61.4375 19.0149 17° North  Level Estimated
04:03AM 61.5433 19.0840 17° North  Level Estimated
04:04AM 61.6490 19.1535 17° North  Level Estimated
04:05AM 61.7547 19.2235 17° North  Level Estimated
04:06AM 61.8603 19.2939 17° North  Level Estimated
04:07AM 61.9659 19.3649 18° North  Level Estimated
04:08AM 62.0715 19.4363 18° North  Level Estimated
04:09AM 62.1770 19.5083 18° North  Level Estimated
04:10AM 62.2825 19.5807 18° North  Level Estimated
04:11AM 62.3879 19.6537 18° North  Level Estimated
04:12AM 62.4933 19.7272 18° North  Level Estimated
04:13AM 62.5987 19.8012 18° North  Level Estimated
04:14AM 62.7040 19.8757 18° North  Level Estimated
04:15AM 62.8093 19.9508 18° North  Level Estimated
04:16AM 62.9146 20.0264 18° North  Level Estimated
04:17AM 63.0198 20.1025 18° North  Level Estimated
04:18AM 63.1250 20.1792 18° North  Level Estimated
04:19AM 63.2301 20.2564 18° North  Level Estimated
04:20AM 63.3352 20.3342 18° North  Level Estimated
04:21AM 63.4402 20.4126 18° North  Level Estimated
04:22AM 63.5452 20.4916 19° North  Level Estimated
04:23AM 63.6502 20.5711 19° North  Level Estimated
04:24AM 63.7551 20.6513 19° North  Level Estimated
04:25AM 63.8600 20.7320 19° North  Level Estimated
04:26AM 63.9648 20.8133 19° North  Level Estimated
04:27AM 64.0695 20.8953 19° North  Level Estimated
04:28AM 64.1743 20.9778 19° North  Level Estimated
04:29AM 64.2790 21.0610 19° North  Level Estimated
04:30AM 64.3836 21.1449 19° North  Level Estimated
04:31AM 64.4882 21.2293 19° North  Level Estimated
04:32AM 64.5927 21.3144 19° North  Level Estimated
04:33AM 64.6972 21.4002 19° North  Level Estimated
04:34AM 64.8017 21.4867 19° North  Level Estimated
04:35AM 64.9061 21.5738 19° North  Level Estimated
04:36AM 65.0104 21.6616 20° North  Level Estimated
04:37AM 65.1147 21.7500 20° North  Level Estimated
04:38AM 65.2189 21.8392 20° North  Level Estimated
04:39AM 65.3231 21.9291 20° North  Level Estimated
04:40AM 65.4272 22.0197 20° North  Level Estimated
04:41AM 65.5313 22.1110 20° North  Level Estimated
04:42AM 65.5438 22.1220 20° North  Level Estimated
04:43AM 65.5438 22.1220 192° South  Level Estimated
04:44AM 65.5438 22.1220 192° South  Level Estimated
04:45AM 65.5438 22.1220 192° South  Level Estimated
04:46AM 65.5438 22.1220 192° South  Level Estimated
04:47AM 65.5438 22.1220 192° South  Level Estimated
04:48AM 65.5438 22.1220 192° South  Level Estimated
04:49AM 65.5438 22.1220 192° South  Level Estimated
04:50AM 65.5438 22.1220 192° South  Level Estimated
04:51AM 65.5438 22.1220 192° South  Level Estimated
04:52AM 65.5438 22.1220 192° South  Level Estimated
04:53AM 65.5438 22.1220 192° South  Level Estimated
04:54AM 65.5438 22.1220 192° South  Level Estimated
04:55AM 65.5438 22.1220 192° South  Level Estimated